createdAt,value
2022-09-15T00:01:02.150Z,101442.19
2022-09-15T00:03:29.539Z,101451.00
2022-09-15T00:05:58.112Z,101447.91
2022-09-15T00:08:25.734Z,101466.34
2022-09-15T00:10:55.800Z,101469.97
2022-09-15T00:13:23.284Z,101479.56
2022-09-15T00:15:50.692Z,101492.69
2022-09-15T00:18:18.081Z,101501.53
2022-09-15T00:20:46.295Z,101503.31
2022-09-15T00:23:16.475Z,101513.72
2022-09-15T00:25:45.320Z,101523.81
2022-09-15T00:28:13.010Z,101535.44
2022-09-15T00:30:41.791Z,101539.44
2022-09-15T00:33:09.207Z,101551.53
2022-09-15T00:35:37.972Z,101557.50
2022-09-15T00:38:05.512Z,101574.19
2022-09-15T00:40:42.436Z,101573.94
2022-09-15T00:43:10.629Z,101577.94
2022-09-15T00:45:37.947Z,101585.94
2022-09-15T00:48:06.465Z,101598.34
2022-09-15T00:50:35.529Z,101605.53
2022-09-15T00:53:05.731Z,101621.53
2022-09-15T00:55:37.783Z,101635.34
2022-09-15T00:58:08.502Z,101630.09
2022-09-15T01:00:36.101Z,101635.78
2022-09-15T01:03:04.253Z,101640.25
2022-09-15T01:05:34.877Z,101661.06
2022-09-15T01:08:14.110Z,101672.94
2022-09-15T01:10:42.953Z,101685.38
2022-09-15T01:13:12.858Z,101691.81
2022-09-15T01:15:49.088Z,101678.75
2022-09-15T01:18:22.048Z,101667.88
2022-09-15T01:21:03.497Z,101657.72
2022-09-15T01:24:31.754Z,101644.84
2022-09-15T01:27:41.037Z,101635.31
2022-09-15T01:30:12.937Z,101626.91
2022-09-15T01:32:53.358Z,101637.16
2022-09-15T01:35:30.107Z,101643.91
2022-09-15T01:38:03.345Z,101654.31
2022-09-15T01:40:36.023Z,101657.47
2022-09-15T01:43:06.142Z,101662.34
2022-09-15T01:45:37.522Z,101664.13
2022-09-15T01:48:08.645Z,101666.13
2022-09-15T01:50:42.905Z,101690.69
2022-09-15T01:53:17.317Z,101708.34
2022-09-15T01:55:50.236Z,101706.94
2022-09-15T01:58:17.519Z,101702.69
2022-09-15T02:00:51.651Z,101688.09
2022-09-15T02:03:23.564Z,101677.25
2022-09-15T02:05:55.010Z,101681.84
2022-09-15T02:08:28.397Z,101683.03
2022-09-15T02:11:02.972Z,101673.34
2022-09-15T02:13:37.897Z,101685.28
2022-09-15T02:16:14.073Z,101671.47
2022-09-15T02:18:48.686Z,101666.13
2022-09-15T02:21:20.951Z,101667.66
2022-09-15T02:23:50.990Z,101667.31
2022-09-15T02:26:23.026Z,101663.63
2022-09-15T02:28:52.125Z,101662.84
2022-09-15T02:31:24.964Z,101658.66
2022-09-15T02:33:57.533Z,101682.81
2022-09-15T02:36:26.710Z,101686.41
2022-09-15T02:38:57.719Z,101687.41
2022-09-15T02:41:25.254Z,101704.00
2022-09-15T02:43:52.661Z,101698.03
2022-09-15T02:46:22.637Z,101722.97
2022-09-15T02:48:49.879Z,101725.69
2022-09-15T02:51:17.593Z,101745.88
2022-09-15T02:53:45.403Z,101757.53
2022-09-15T02:56:12.805Z,101777.09
2022-09-15T02:58:40.086Z,101808.47
2022-09-15T03:01:08.604Z,101839.41
2022-09-15T03:03:41.076Z,101877.03
2022-09-15T03:06:10.687Z,101898.59
2022-09-15T03:08:37.889Z,101930.66
2022-09-15T03:11:05.201Z,101955.00
2022-09-15T03:13:32.408Z,101969.00
2022-09-15T03:15:59.659Z,101984.25
2022-09-15T03:18:26.913Z,101995.47
2022-09-15T03:20:57.677Z,102005.13
2022-09-15T03:23:24.863Z,102012.28
2022-09-15T03:25:52.069Z,102026.66
2022-09-15T03:28:19.330Z,102033.91
2022-09-15T03:30:46.591Z,102039.44
2022-09-15T03:33:13.845Z,102045.13
2022-09-15T03:35:41.177Z,102057.16
2022-09-15T03:38:09.841Z,102053.38
2022-09-15T03:40:37.052Z,102049.81
2022-09-15T03:43:04.287Z,102046.56
2022-09-15T03:45:31.657Z,102056.19
2022-09-15T03:47:58.979Z,102039.28
2022-09-15T03:50:26.209Z,102031.22
2022-09-15T03:52:56.806Z,102034.41
2022-09-15T03:55:28.132Z,102019.13
2022-09-15T03:57:55.773Z,102015.47
2022-09-15T04:00:23.260Z,102009.88
2022-09-15T04:02:50.976Z,102012.50
2022-09-15T04:05:18.249Z,102007.41
2022-09-15T04:07:45.576Z,102006.91
2022-09-15T04:10:12.799Z,101993.81
2022-09-15T04:12:41.613Z,102000.66
2022-09-15T04:15:09.877Z,101994.00
2022-09-15T04:17:37.409Z,101988.03
2022-09-15T04:20:05.256Z,101981.66
2022-09-15T04:22:32.671Z,101972.31
2022-09-15T04:24:59.901Z,101970.63
2022-09-15T04:27:27.157Z,101958.00
2022-09-15T04:29:55.848Z,101951.50
2022-09-15T04:32:23.119Z,101956.25
2022-09-15T04:34:50.380Z,101949.06
2022-09-15T04:37:17.632Z,101941.81
2022-09-15T04:39:44.864Z,101930.31
2022-09-15T04:42:12.212Z,101932.59
2022-09-15T04:44:39.431Z,101927.34
2022-09-15T04:47:08.066Z,101924.00
2022-09-15T04:49:35.289Z,101914.59
2022-09-15T04:52:04.765Z,101909.63
2022-09-15T04:54:35.017Z,101917.69
2022-09-15T04:57:02.415Z,101902.56
2022-09-15T04:59:29.677Z,101903.66
2022-09-15T05:01:56.977Z,101898.66
2022-09-15T05:04:25.627Z,101892.25
2022-09-15T05:06:52.820Z,101893.84
2022-09-15T05:09:20.081Z,101892.25
2022-09-15T05:11:47.336Z,101887.88
2022-09-15T05:14:14.550Z,101879.81
2022-09-15T05:16:41.914Z,101883.69
2022-09-15T05:19:10.148Z,101868.53
2022-09-15T05:21:38.943Z,101852.59
2022-09-15T05:24:07.044Z,101844.78
2022-09-15T05:26:34.352Z,101835.16
2022-09-15T05:29:01.633Z,101824.25
2022-09-15T05:31:30.935Z,101808.91
2022-09-15T05:34:00.426Z,101792.53
2022-09-15T05:36:27.774Z,101799.16
2022-09-15T05:38:56.897Z,101789.84
2022-09-15T05:41:25.181Z,101777.75
2022-09-15T05:43:54.990Z,101769.09
2022-09-15T05:46:22.810Z,101760.25
2022-09-15T05:48:50.138Z,101761.84
2022-09-15T05:51:17.343Z,101732.34
2022-09-15T05:53:44.662Z,101710.13
2022-09-15T05:56:15.177Z,101712.78
2022-09-15T05:58:44.415Z,101697.78
2022-09-15T06:01:14.383Z,101684.72
2022-09-15T06:03:42.164Z,101677.34
2022-09-15T06:06:09.469Z,101655.88
2022-09-15T06:08:43.630Z,101632.72
2022-09-15T06:11:14.381Z,101622.53
2022-09-15T06:13:42.517Z,101610.78
2022-09-15T06:16:11.727Z,101599.19
2022-09-15T06:18:40.119Z,101582.00
2022-09-15T06:21:10.163Z,101575.16
2022-09-15T06:23:38.197Z,101559.69
2022-09-15T06:26:10.916Z,101542.13
2022-09-15T06:28:41.258Z,101540.19
2022-09-15T06:31:12.766Z,101523.41
2022-09-15T06:33:42.604Z,101495.16
2022-09-15T06:36:10.050Z,101472.69
2022-09-15T06:38:37.830Z,101468.63
2022-09-15T06:41:05.618Z,101456.03
2022-09-15T06:43:33.896Z,101445.44
2022-09-15T06:46:04.036Z,101426.03
2022-09-15T06:48:31.384Z,101425.03
2022-09-15T06:50:59.107Z,101407.84
2022-09-15T06:53:28.390Z,101399.38
2022-09-15T06:55:55.705Z,101393.53
2022-09-15T06:58:23.014Z,101378.72
2022-09-15T07:00:50.249Z,101360.78
2022-09-15T07:03:18.892Z,101338.31
2022-09-15T07:05:46.196Z,101314.63
2022-09-15T07:08:13.473Z,101296.53
2022-09-15T07:10:43.417Z,101255.00
2022-09-15T07:13:10.801Z,101199.53
2022-09-15T07:15:38.500Z,101175.03
2022-09-15T07:18:06.392Z,101166.91
2022-09-15T07:20:38.576Z,101135.34
2022-09-15T07:23:05.913Z,101124.53
2022-09-15T07:25:33.162Z,101110.91
2022-09-15T07:28:00.504Z,101099.81
2022-09-15T07:30:28.065Z,101099.47
2022-09-15T07:32:55.348Z,101086.84
2022-09-15T07:35:22.671Z,101089.22
2022-09-15T07:37:51.373Z,101099.25
2022-09-15T07:40:18.768Z,101077.41
2022-09-15T07:42:46.141Z,101088.47
2022-09-15T07:45:13.588Z,101086.22
2022-09-15T07:47:40.809Z,101080.25
2022-09-15T07:50:08.369Z,101048.03
2022-09-15T07:52:35.719Z,101026.50
2022-09-15T07:55:04.976Z,101019.56
2022-09-15T07:57:32.251Z,101013.25
2022-09-15T07:59:59.468Z,100981.28
2022-09-15T08:02:26.707Z,100955.63
2022-09-15T08:04:53.998Z,100947.88
2022-09-15T08:07:21.228Z,100922.72
2022-09-15T08:09:48.452Z,100880.19
2022-09-15T08:12:17.114Z,100858.84
2022-09-15T08:14:44.293Z,100819.59
2022-09-15T08:17:11.843Z,100825.13
2022-09-15T08:19:39.187Z,100820.19
2022-09-15T08:22:06.420Z,100798.41
2022-09-15T08:24:34.407Z,100788.66
2022-09-15T08:27:01.608Z,100770.72
2022-09-15T08:29:30.308Z,100733.59
2022-09-15T08:31:58.277Z,100743.63
2022-09-15T08:34:27.975Z,100741.78
2022-09-15T08:36:55.291Z,100743.09
2022-09-15T08:39:22.546Z,100757.81
2022-09-15T08:41:52.421Z,100766.72
2022-09-15T08:44:31.530Z,100757.16
2022-09-15T08:47:05.523Z,100752.50
2022-09-15T08:49:51.618Z,100752.22
2022-09-15T08:52:26.203Z,100763.28
2022-09-15T08:54:57.236Z,100814.06
2022-09-15T08:57:25.786Z,100938.53
2022-09-15T08:59:54.197Z,101064.97
2022-09-15T09:02:46.430Z,101209.28
2022-09-15T09:05:28.001Z,101304.00
2022-09-15T09:08:21.160Z,101488.38
2022-09-15T09:10:52.412Z,101687.50
2022-09-15T09:13:35.268Z,101847.28
2022-09-15T09:16:17.685Z,101947.47
2022-09-15T09:19:03.549Z,101981.09
2022-09-15T09:21:34.621Z,101999.84
2022-09-15T09:24:05.202Z,101999.06
2022-09-15T09:26:35.751Z,101976.63
2022-09-15T09:29:10.081Z,101967.47
2022-09-15T09:31:37.632Z,101947.97
2022-09-15T09:34:20.259Z,101927.84
2022-09-15T09:36:53.171Z,101889.03
2022-09-15T09:39:20.437Z,101850.84
2022-09-15T09:41:48.102Z,101818.50
2022-09-15T09:44:15.540Z,101772.34
2022-09-15T09:46:43.107Z,101750.81
2022-09-15T09:49:17.467Z,101701.03
2022-09-15T09:51:50.104Z,101666.31
2022-09-15T09:54:17.686Z,101653.84
2022-09-15T09:56:45.157Z,101640.25
2022-09-15T09:59:34.534Z,101625.72
2022-09-15T10:02:12.554Z,101449.59
2022-09-15T10:04:42.516Z,101257.47
2022-09-15T10:07:09.966Z,101080.69
2022-09-15T10:09:37.983Z,101087.50
2022-09-15T10:12:06.492Z,101122.88
2022-09-15T10:14:36.384Z,101144.91
2022-09-15T10:17:07.276Z,101208.84
2022-09-15T10:19:43.151Z,101199.03
2022-09-15T10:22:22.090Z,101104.09
2022-09-15T10:24:49.451Z,101020.75
2022-09-15T10:27:26.085Z,101036.47
2022-09-15T10:29:53.790Z,101020.75
2022-09-15T10:32:25.657Z,100963.44
2022-09-15T10:35:07.315Z,100970.38
2022-09-15T10:37:43.437Z,100968.28
2022-09-15T10:40:37.379Z,100923.69
2022-09-15T10:43:19.508Z,100888.09
2022-09-15T10:45:49.267Z,100863.13
2022-09-15T10:48:37.584Z,100864.69
2022-09-15T10:51:18.281Z,100786.75
2022-09-15T10:54:07.008Z,100598.84
2022-09-15T10:56:38.458Z,100520.81
2022-09-15T10:59:20.746Z,100505.09
2022-09-15T11:02:04.982Z,100511.53
2022-09-15T11:04:56.131Z,100497.16
2022-09-15T11:07:33.554Z,100479.75
2022-09-15T11:10:10.927Z,100475.38
2022-09-15T11:12:55.399Z,100489.50
2022-09-15T11:15:41.722Z,100543.81
2022-09-15T11:18:30.931Z,100711.91
2022-09-15T11:21:19.895Z,100958.59
2022-09-15T11:23:57.134Z,101131.13
2022-09-15T11:26:32.710Z,101273.72
2022-09-15T11:29:05.461Z,101369.72
2022-09-15T11:31:39.600Z,101484.19
2022-09-15T11:34:15.393Z,101588.78
2022-09-15T11:36:49.238Z,101657.00
2022-09-15T11:39:22.146Z,101693.38
2022-09-15T11:41:55.544Z,101750.66
2022-09-15T11:44:27.137Z,101747.50
2022-09-15T11:47:05.254Z,101707.50
2022-09-15T11:49:40.509Z,101588.84
2022-09-15T11:52:31.864Z,101575.03
2022-09-15T11:55:07.065Z,101292.16
2022-09-15T11:57:44.371Z,100968.78
2022-09-15T12:00:13.934Z,100922.31
2022-09-15T12:02:49.016Z,100854.53
2022-09-15T12:05:20.612Z,100794.09
2022-09-15T12:07:53.392Z,100736.09
2022-09-15T12:10:24.101Z,100556.72
2022-09-15T12:12:53.854Z,100518.66
2022-09-15T12:15:21.135Z,100491.69
2022-09-15T12:17:55.107Z,100503.66
2022-09-15T12:20:28.314Z,100494.19
2022-09-15T12:23:04.338Z,100495.81
2022-09-15T12:25:40.215Z,100493.09
2022-09-15T12:28:40.514Z,100527.66
2022-09-15T12:31:26.192Z,100533.50
2022-09-15T12:33:55.282Z,100540.94
2022-09-15T12:36:45.516Z,100528.66
2022-09-15T12:39:37.619Z,100509.34
2022-09-15T12:42:11.024Z,100508.88
2022-09-15T12:44:42.409Z,100524.41
2022-09-15T12:47:19.951Z,100547.94
2022-09-15T12:49:49.870Z,100546.25
2022-09-15T12:52:20.151Z,100560.06
2022-09-15T12:54:53.207Z,100554.41
2022-09-15T12:57:24.549Z,100543.38
2022-09-15T13:00:25.031Z,100548.22
2022-09-15T13:02:54.328Z,100580.84
2022-09-15T13:05:58.685Z,100605.53
2022-09-15T13:08:48.340Z,100634.00
2022-09-15T13:11:19.743Z,100641.75
2022-09-15T13:13:51.629Z,100643.75
2022-09-15T13:16:26.716Z,100641.22
2022-09-15T13:19:13.726Z,100629.06
2022-09-15T13:21:44.934Z,100619.88
2022-09-15T13:24:20.104Z,100614.81
2022-09-15T13:26:50.804Z,100609.25
2022-09-15T13:29:19.270Z,100603.94
2022-09-15T13:31:54.947Z,100587.28
2022-09-15T13:35:07.840Z,100593.94
2022-09-15T13:38:08.120Z,100576.75
2022-09-15T13:41:03.617Z,100578.31
2022-09-15T13:44:09.209Z,100567.91
2022-09-15T13:46:49.303Z,100535.22
2022-09-15T13:49:44.073Z,100521.25
2022-09-15T13:52:26.427Z,100521.22
2022-09-15T13:55:16.576Z,100539.97
2022-09-15T14:00:42.625Z,100650.69
2022-09-15T14:03:12.737Z,100725.75
2022-09-15T14:05:40.137Z,100873.72
2022-09-15T14:08:12.786Z,100967.59
2022-09-15T14:10:46.933Z,101082.91
2022-09-15T14:13:17.105Z,101270.66
2022-09-15T14:15:56.477Z,101534.41
2022-09-15T14:18:23.668Z,101627.69
2022-09-15T14:20:58.707Z,101655.59
2022-09-15T14:23:26.352Z,101702.31
2022-09-15T14:25:55.023Z,101727.94
2022-09-15T14:28:31.379Z,101709.09
2022-09-15T14:31:00.686Z,101747.03
2022-09-15T14:33:37.029Z,101819.84
2022-09-15T14:36:22.356Z,101926.78
2022-09-15T14:39:06.872Z,102012.50
2022-09-15T14:41:35.958Z,102057.91
2022-09-15T14:45:52.340Z,102076.28
2022-09-15T14:47:11.335Z,102048.38
2022-09-15T14:49:38.566Z,101989.75
2022-09-15T14:52:22.206Z,101942.13
2022-09-15T14:54:50.245Z,101854.84
2022-09-15T14:57:21.719Z,101609.78
2022-09-15T14:59:52.254Z,101560.59
2022-09-15T15:02:27.510Z,101553.66
2022-09-15T15:05:00.108Z,101563.63
2022-09-15T15:07:30.551Z,101597.44
2022-09-15T15:10:00.809Z,101585.84
2022-09-15T15:12:34.777Z,101552.41
2022-09-15T15:15:03.153Z,101563.63
2022-09-15T15:17:34.025Z,101609.25
2022-09-15T15:20:13.276Z,101590.50
2022-09-15T15:22:42.700Z,101654.44
2022-09-15T15:25:31.458Z,101761.31
2022-09-15T15:28:01.056Z,101830.38
2022-09-15T15:30:49.250Z,101887.94
2022-09-15T15:33:24.069Z,101939.34
2022-09-15T15:36:06.312Z,101992.16
2022-09-15T15:38:35.714Z,102021.78
2022-09-15T15:41:05.280Z,102065.13
2022-09-15T15:43:34.846Z,102086.53
2022-09-15T15:46:04.355Z,102107.38
2022-09-15T15:48:36.846Z,102128.09
2022-09-15T15:51:06.468Z,102129.66
2022-09-15T15:53:33.870Z,102150.03
2022-09-15T15:56:01.565Z,102151.59
2022-09-15T15:58:28.804Z,102154.59
2022-09-15T16:00:57.746Z,102142.31
2022-09-15T16:03:25.252Z,102082.13
2022-09-15T16:05:54.173Z,102031.09
2022-09-15T16:08:27.455Z,101989.00
2022-09-15T16:10:55.455Z,101976.59
2022-09-15T16:13:24.620Z,101990.63
2022-09-15T16:15:52.609Z,102003.41
2022-09-15T16:18:21.280Z,102029.72
2022-09-15T16:20:48.556Z,102069.25
2022-09-15T16:23:17.836Z,102097.63
2022-09-15T16:25:48.809Z,102118.19
2022-09-15T16:28:16.253Z,102116.09
2022-09-15T16:30:44.117Z,102132.81
2022-09-15T16:33:14.091Z,102096.28
2022-09-15T16:35:47.921Z,102052.88
2022-09-15T16:38:15.193Z,102016.09
2022-09-15T16:40:42.406Z,101989.63
2022-09-15T16:43:13.096Z,101965.88
2022-09-15T16:45:41.174Z,101946.88
2022-09-15T16:48:09.146Z,101943.03
2022-09-15T16:50:39.811Z,101949.34
2022-09-15T16:53:14.361Z,101951.63
2022-09-15T16:55:44.872Z,101947.63
2022-09-15T16:58:13.092Z,101940.09
2022-09-15T17:00:40.552Z,101945.69
2022-09-15T17:03:08.271Z,101941.03
2022-09-15T17:05:38.171Z,101932.00
2022-09-15T17:08:07.133Z,101943.47
2022-09-15T17:10:36.600Z,101930.72
2022-09-15T17:13:04.742Z,101915.38
2022-09-15T17:15:35.285Z,101903.38
2022-09-15T17:18:03.315Z,101897.28
2022-09-15T17:20:31.728Z,101878.53
2022-09-15T17:23:01.811Z,101880.38
2022-09-15T17:25:31.724Z,101868.03
2022-09-15T17:28:01.315Z,101869.50
2022-09-15T17:30:30.841Z,101863.75
2022-09-15T17:33:02.273Z,101861.72
2022-09-15T17:35:33.128Z,101861.63
2022-09-15T17:38:01.052Z,101844.13
2022-09-15T17:40:28.813Z,101835.47
2022-09-15T17:42:56.224Z,101837.81
2022-09-15T17:45:27.102Z,101829.25
2022-09-15T17:47:54.382Z,101838.59
2022-09-15T17:50:23.058Z,101841.13
2022-09-15T17:52:50.840Z,101855.22
2022-09-15T17:55:20.389Z,101864.06
2022-09-15T17:57:49.130Z,101869.28
2022-09-15T18:00:17.959Z,101877.84
2022-09-15T18:02:48.540Z,101886.31
2022-09-15T18:05:21.752Z,101890.00
2022-09-15T18:07:49.251Z,101902.84
2022-09-15T18:10:17.389Z,101910.41
2022-09-15T18:12:48.378Z,101916.44
2022-09-15T18:15:19.525Z,101918.88
2022-09-15T18:17:48.788Z,101915.72
2022-09-15T18:20:18.603Z,101915.41
2022-09-15T18:22:46.987Z,101901.91
2022-09-15T18:25:17.787Z,101897.53
2022-09-15T18:27:45.799Z,101911.31
2022-09-15T18:30:13.565Z,101910.81
2022-09-15T18:32:40.836Z,101927.97
2022-09-15T18:35:10.282Z,101941.53
2022-09-15T18:37:38.227Z,101940.00
2022-09-15T18:40:08.027Z,101945.75
2022-09-15T18:42:35.457Z,101949.03
2022-09-15T18:45:02.696Z,101958.72
2022-09-15T18:47:30.191Z,101971.91
2022-09-15T18:49:57.578Z,101975.94
2022-09-15T18:52:27.125Z,101981.97
2022-09-15T18:54:54.558Z,101973.28
2022-09-15T18:57:21.985Z,101980.81
2022-09-15T18:59:49.509Z,101985.19
2022-09-15T19:02:16.879Z,101990.84
2022-09-15T19:04:44.361Z,101988.84
2022-09-15T19:07:12.363Z,101994.16
2022-09-15T19:09:41.903Z,101987.09
2022-09-15T19:12:09.186Z,101998.22
2022-09-15T19:14:36.511Z,101997.50
2022-09-15T19:17:03.776Z,101988.38
2022-09-15T19:19:32.417Z,101983.16
2022-09-15T19:21:59.745Z,101982.78
2022-09-15T19:24:27.032Z,101972.47
2022-09-15T19:26:55.715Z,101971.66
2022-09-15T19:29:22.992Z,101962.84
2022-09-15T19:31:50.346Z,101967.31
2022-09-15T19:34:17.560Z,101962.09
2022-09-15T19:36:44.835Z,101962.97
2022-09-15T19:39:13.008Z,101958.16
2022-09-15T19:41:40.274Z,101959.78
2022-09-15T19:44:10.755Z,101954.56
2022-09-15T19:46:38.406Z,101951.41
2022-09-15T19:49:05.861Z,101948.25
2022-09-15T19:51:33.292Z,101949.34
2022-09-15T19:54:00.621Z,101947.34
2022-09-15T19:56:28.852Z,101948.13
2022-09-15T19:58:57.964Z,101952.03
2022-09-15T20:01:28.565Z,101954.09
2022-09-15T20:03:56.773Z,101952.03
2022-09-15T20:06:28.826Z,101965.50
2022-09-15T20:08:58.918Z,101970.31
2022-09-15T20:11:27.277Z,101975.84
2022-09-15T20:13:55.586Z,101971.53
2022-09-15T20:16:24.472Z,101980.72
2022-09-15T20:18:54.383Z,101971.97
2022-09-15T20:21:45.940Z,101985.88
2022-09-15T20:24:11.064Z,101977.56
2022-09-15T20:26:38.324Z,101974.34
2022-09-15T20:29:05.657Z,101979.19
2022-09-15T20:31:33.028Z,101983.16
2022-09-15T20:34:02.198Z,101985.09
2022-09-15T20:36:31.511Z,101980.00
2022-09-15T20:38:59.657Z,101975.25
2022-09-15T20:41:28.564Z,101983.84
2022-09-15T20:43:55.786Z,101975.97
2022-09-15T20:46:23.939Z,101981.50
2022-09-15T20:48:52.216Z,101975.19
2022-09-15T20:51:23.007Z,101972.84
2022-09-15T20:53:51.587Z,101974.41
2022-09-15T20:56:21.659Z,101977.63
2022-09-15T20:58:48.933Z,101980.84
2022-09-15T21:01:21.129Z,101973.66
2022-09-15T21:03:48.707Z,101980.91
2022-09-15T21:06:18.496Z,101992.91
2022-09-15T21:08:48.175Z,101975.38
2022-09-15T21:11:17.034Z,101983.03
2022-09-15T21:13:44.320Z,101972.69
2022-09-15T21:16:13.581Z,101976.69
2022-09-15T21:18:42.595Z,101973.84
2022-09-15T21:21:11.483Z,101961.72
2022-09-15T21:23:40.297Z,101956.09
2022-09-15T21:26:10.757Z,101940.34
2022-09-15T21:28:38.300Z,101942.13
2022-09-15T21:31:08.721Z,101935.84
2022-09-15T21:33:37.468Z,101940.00
2022-09-15T21:36:06.770Z,101953.59
2022-09-15T21:38:35.061Z,101968.91
2022-09-15T21:41:03.513Z,101975.69
2022-09-15T21:43:33.147Z,101982.56
2022-09-15T21:46:00.699Z,101996.53
2022-09-15T21:48:27.966Z,101991.00
2022-09-15T21:50:55.276Z,101994.22
2022-09-15T21:53:22.708Z,101997.88
2022-09-15T21:55:50.766Z,102003.13
2022-09-15T21:58:19.114Z,101997.59
2022-09-15T22:00:48.391Z,102007.22
2022-09-15T22:03:16.216Z,102000.06
2022-09-15T22:05:46.774Z,102009.22
2022-09-15T22:08:15.640Z,102010.81
2022-09-15T22:10:43.714Z,102022.06
2022-09-15T22:13:12.036Z,102032.34
2022-09-15T22:15:39.312Z,102032.81
2022-09-15T22:18:08.057Z,102030.47
2022-09-15T22:21:02.322Z,102034.91
2022-09-15T22:23:29.589Z,102038.09
2022-09-15T22:26:00.245Z,102039.66
2022-09-15T22:28:27.643Z,102043.69
2022-09-15T22:30:57.477Z,102042.91
2022-09-15T22:33:26.673Z,102049.31
2022-09-15T22:35:54.383Z,102046.56
2022-09-15T22:38:21.712Z,102054.16
2022-09-15T22:40:48.969Z,102049.72
2022-09-15T22:43:16.222Z,102058.16
2022-09-15T22:45:43.726Z,102062.13
2022-09-15T22:48:11.041Z,102067.69
2022-09-15T22:50:39.918Z,102053.34
2022-09-15T22:53:07.255Z,102057.31
2022-09-15T22:55:34.466Z,102068.06
2022-09-15T22:58:01.707Z,102064.44
2022-09-15T23:00:29.095Z,102072.44
2022-09-15T23:02:56.335Z,102061.31
2022-09-15T23:05:24.754Z,102059.75
2022-09-15T23:07:53.465Z,102060.56
2022-09-15T23:10:20.808Z,102054.97
2022-09-15T23:12:48.597Z,102047.84
2022-09-15T23:15:15.963Z,102054.13
2022-09-15T23:17:43.228Z,102045.44
2022-09-15T23:20:10.488Z,102048.63
2022-09-15T23:22:37.806Z,102055.69
2022-09-15T23:25:07.118Z,102042.16
2022-09-15T23:27:34.372Z,102044.94
2022-09-15T23:30:01.628Z,102043.41
2022-09-15T23:32:28.944Z,102030.66
2022-09-15T23:34:56.184Z,102031.03
2022-09-15T23:37:23.412Z,102027.84
2022-09-15T23:39:50.703Z,102027.13
2022-09-15T23:42:19.354Z,102028.69
2022-09-15T23:44:46.615Z,102021.94
2022-09-15T23:47:13.842Z,102025.53
2022-09-15T23:49:41.360Z,102023.13
2022-09-15T23:52:08.631Z,102024.34
2022-09-15T23:54:35.883Z,102036.22
2022-09-15T23:57:03.256Z,102026.66
2022-09-15T23:59:31.828Z,102033.06
